sensor_id;sensor_type;location;lat;lon;timestamp;P1;durP1;ratioP1;P2;durP2;ratioP2
48205;SDS011;33995;48.202;16.260;2023-03-19T00:00:46;11.10;;;9.40;;
48205;SDS011;33995;48.202;16.260;2023-03-19T00:03:14;11.20;;;10.10;;
48205;SDS011;33995;48.202;16.260;2023-03-19T00:05:48;12.37;;;10.33;;
48205;SDS011;33995;48.202;16.260;2023-03-19T00:08:17;11.90;;;10.37;;
48205;SDS011;33995;48.202;16.260;2023-03-19T00:10:44;11.77;;;10.57;;
48205;SDS011;33995;48.202;16.260;2023-03-19T00:13:12;11.73;;;9.70;;
48205;SDS011;33995;48.202;16.260;2023-03-19T00:15:39;11.27;;;10.10;;
48205;SDS011;33995;48.202;16.260;2023-03-19T00:18:07;10.50;;;9.30;;
48205;SDS011;33995;48.202;16.260;2023-03-19T00:20:34;11.43;;;9.90;;
48205;SDS011;33995;48.202;16.260;2023-03-19T00:23:02;11.00;;;9.50;;
48205;SDS011;33995;48.202;16.260;2023-03-19T00:25:29;11.87;;;10.60;;
48205;SDS011;33995;48.202;16.260;2023-03-19T00:27:59;10.87;;;9.77;;
48205;SDS011;33995;48.202;16.260;2023-03-19T00:30:27;11.07;;;9.90;;
48205;SDS011;33995;48.202;16.260;2023-03-19T00:32:54;12.17;;;10.33;;
48205;SDS011;33995;48.202;16.260;2023-03-19T00:35:21;10.50;;;9.40;;
48205;SDS011;33995;48.202;16.260;2023-03-19T00:37:48;10.10;;;9.10;;
48205;SDS011;33995;48.202;16.260;2023-03-19T00:40:15;11.90;;;10.70;;
48205;SDS011;33995;48.202;16.260;2023-03-19T00:42:43;11.13;;;9.73;;
48205;SDS011;33995;48.202;16.260;2023-03-19T00:45:10;11.50;;;10.30;;
48205;SDS011;33995;48.202;16.260;2023-03-19T00:47:38;12.13;;;10.03;;
48205;SDS011;33995;48.202;16.260;2023-03-19T00:50:05;11.17;;;9.97;;
48205;SDS011;33995;48.202;16.260;2023-03-19T00:52:34;11.50;;;10.40;;
48205;SDS011;33995;48.202;16.260;2023-03-19T00:55:01;10.77;;;9.67;;
48205;SDS011;33995;48.202;16.260;2023-03-19T00:57:28;10.60;;;9.60;;
48205;SDS011;33995;48.202;16.260;2023-03-19T00:59:55;11.63;;;10.43;;
48205;SDS011;33995;48.202;16.260;2023-03-19T01:02:22;11.33;;;10.10;;
48205;SDS011;33995;48.202;16.260;2023-03-19T01:04:49;12.03;;;10.83;;
48205;SDS011;33995;48.202;16.260;2023-03-19T01:07:19;10.70;;;9.60;;
48205;SDS011;33995;48.202;16.260;2023-03-19T01:09:46;11.50;;;10.40;;
48205;SDS011;33995;48.202;16.260;2023-03-19T01:12:13;11.80;;;10.63;;
48205;SDS011;33995;48.202;16.260;2023-03-19T01:14:43;12.33;;;9.70;;
48205;SDS011;33995;48.202;16.260;2023-03-19T01:17:11;11.47;;;10.27;;
48205;SDS011;33995;48.202;16.260;2023-03-19T01:19:38;10.57;;;9.47;;
48205;SDS011;33995;48.202;16.260;2023-03-19T01:22:05;11.63;;;10.33;;
48205;SDS011;33995;48.202;16.260;2023-03-19T01:24:35;11.90;;;10.70;;
48205;SDS011;33995;48.202;16.260;2023-03-19T01:27:02;11.37;;;10.17;;
48205;SDS011;33995;48.202;16.260;2023-03-19T01:29:33;11.73;;;10.07;;
48205;SDS011;33995;48.202;16.260;2023-03-19T01:32:08;12.00;;;10.80;;
48205;SDS011;33995;48.202;16.260;2023-03-19T01:34:52;11.30;;;10.10;;
48205;SDS011;33995;48.202;16.260;2023-03-19T01:37:22;11.37;;;10.27;;
48205;SDS011;33995;48.202;16.260;2023-03-19T01:39:50;10.97;;;9.83;;
48205;SDS011;33995;48.202;16.260;2023-03-19T01:42:17;11.90;;;10.70;;
48205;SDS011;33995;48.202;16.260;2023-03-19T01:45:00;10.83;;;9.73;;
48205;SDS011;33995;48.202;16.260;2023-03-19T01:47:57;11.77;;;10.57;;
48205;SDS011;33995;48.202;16.260;2023-03-19T01:50:39;11.40;;;9.70;;
48205;SDS011;33995;48.202;16.260;2023-03-19T01:53:25;11.37;;;10.27;;
48205;SDS011;33995;48.202;16.260;2023-03-19T01:56:16;11.30;;;10.10;;
48205;SDS011;33995;48.202;16.260;2023-03-19T01:59:14;11.07;;;9.97;;
48205;SDS011;33995;48.202;16.260;2023-03-19T02:02:14;11.00;;;9.93;;
48205;SDS011;33995;48.202;16.260;2023-03-19T02:04:50;10.80;;;9.80;;
48205;SDS011;33995;48.202;16.260;2023-03-19T02:07:21;11.00;;;9.97;;
48205;SDS011;33995;48.202;16.260;2023-03-19T02:09:48;10.83;;;9.63;;
48205;SDS011;33995;48.202;16.260;2023-03-19T02:12:18;11.77;;;10.57;;
48205;SDS011;33995;48.202;16.260;2023-03-19T02:14:46;11.30;;;10.07;;
48205;SDS011;33995;48.202;16.260;2023-03-19T02:17:13;11.07;;;9.97;;
48205;SDS011;33995;48.202;16.260;2023-03-19T02:22:27;12.53;;;10.20;;
48205;SDS011;33995;48.202;16.260;2023-03-19T02:25:06;11.97;;;10.17;;
48205;SDS011;33995;48.202;16.260;2023-03-19T02:27:45;11.40;;;10.20;;
48205;SDS011;33995;48.202;16.260;2023-03-19T02:33:02;12.23;;;10.93;;
48205;SDS011;33995;48.202;16.260;2023-03-19T02:35:30;11.43;;;10.33;;
48205;SDS011;33995;48.202;16.260;2023-03-19T02:38:01;12.17;;;10.97;;
48205;SDS011;33995;48.202;16.260;2023-03-19T02:40:31;11.50;;;10.40;;
48205;SDS011;33995;48.202;16.260;2023-03-19T02:43:04;11.87;;;10.67;;
48205;SDS011;33995;48.202;16.260;2023-03-19T02:45:32;11.13;;;10.03;;
48205;SDS011;33995;48.202;16.260;2023-03-19T02:48:00;11.87;;;10.67;;
48205;SDS011;33995;48.202;16.260;2023-03-19T02:50:29;11.37;;;10.20;;
48205;SDS011;33995;48.202;16.260;2023-03-19T02:52:57;11.83;;;10.73;;
48205;SDS011;33995;48.202;16.260;2023-03-19T02:55:25;10.80;;;9.70;;
48205;SDS011;33995;48.202;16.260;2023-03-19T02:57:52;11.87;;;10.63;;
48205;SDS011;33995;48.202;16.260;2023-03-19T03:00:23;10.47;;;9.40;;
48205;SDS011;33995;48.202;16.260;2023-03-19T03:02:51;11.37;;;10.27;;
48205;SDS011;33995;48.202;16.260;2023-03-19T03:05:20;11.50;;;10.40;;
48205;SDS011;33995;48.202;16.260;2023-03-19T03:07:48;10.87;;;9.77;;
48205;SDS011;33995;48.202;16.260;2023-03-19T03:10:15;11.50;;;9.97;;
48205;SDS011;33995;48.202;16.260;2023-03-19T03:12:43;10.97;;;9.97;;
48205;SDS011;33995;48.202;16.260;2023-03-19T03:15:11;11.47;;;10.27;;
48205;SDS011;33995;48.202;16.260;2023-03-19T03:17:42;12.07;;;10.77;;
48205;SDS011;33995;48.202;16.260;2023-03-19T03:20:12;12.10;;;10.90;;
48205;SDS011;33995;48.202;16.260;2023-03-19T03:22:41;11.43;;;10.23;;
48205;SDS011;33995;48.202;16.260;2023-03-19T03:25:11;12.50;;;10.87;;
48205;SDS011;33995;48.202;16.260;2023-03-19T03:27:39;12.23;;;10.93;;
48205;SDS011;33995;48.202;16.260;2023-03-19T03:30:08;12.60;;;11.33;;
48205;SDS011;33995;48.202;16.260;2023-03-19T03:32:39;11.63;;;10.53;;
48205;SDS011;33995;48.202;16.260;2023-03-19T03:35:06;11.80;;;10.60;;
48205;SDS011;33995;48.202;16.260;2023-03-19T03:37:35;11.73;;;10.37;;
48205;SDS011;33995;48.202;16.260;2023-03-19T03:40:03;12.37;;;11.07;;
48205;SDS011;33995;48.202;16.260;2023-03-19T03:42:35;12.27;;;10.97;;
48205;SDS011;33995;48.202;16.260;2023-03-19T03:45:05;12.43;;;11.07;;
48205;SDS011;33995;48.202;16.260;2023-03-19T03:47:32;12.27;;;11.00;;
48205;SDS011;33995;48.202;16.260;2023-03-19T03:50:02;12.73;;;11.40;;
48205;SDS011;33995;48.202;16.260;2023-03-19T03:52:30;12.10;;;10.87;;
48205;SDS011;33995;48.202;16.260;2023-03-19T03:55:02;12.37;;;11.07;;
48205;SDS011;33995;48.202;16.260;2023-03-19T03:57:29;11.60;;;10.40;;
48205;SDS011;33995;48.202;16.260;2023-03-19T03:59:57;12.33;;;11.07;;
48205;SDS011;33995;48.202;16.260;2023-03-19T04:02:24;12.20;;;10.90;;
48205;SDS011;33995;48.202;16.260;2023-03-19T04:04:53;12.07;;;10.87;;
48205;SDS011;33995;48.202;16.260;2023-03-19T04:07:20;12.07;;;10.87;;
48205;SDS011;33995;48.202;16.260;2023-03-19T04:09:53;12.37;;;11.07;;
48205;SDS011;33995;48.202;16.260;2023-03-19T04:12:22;12.13;;;10.90;;
48205;SDS011;33995;48.202;16.260;2023-03-19T04:14:49;13.13;;;11.60;;
48205;SDS011;33995;48.202;16.260;2023-03-19T04:17:17;12.70;;;11.33;;
48205;SDS011;33995;48.202;16.260;2023-03-19T04:19:46;14.00;;;11.77;;
48205;SDS011;33995;48.202;16.260;2023-03-19T04:22:12;13.50;;;12.10;;
48205;SDS011;33995;48.202;16.260;2023-03-19T04:24:41;12.80;;;11.50;;
48205;SDS011;33995;48.202;16.260;2023-03-19T04:27:08;13.27;;;11.87;;
48205;SDS011;33995;48.202;16.260;2023-03-19T04:29:37;13.00;;;11.67;;
48205;SDS011;33995;48.202;16.260;2023-03-19T04:32:04;13.17;;;11.60;;
48205;SDS011;33995;48.202;16.260;2023-03-19T04:34:32;12.53;;;11.27;;
48205;SDS011;33995;48.202;16.260;2023-03-19T04:36:59;13.07;;;11.60;;
48205;SDS011;33995;48.202;16.260;2023-03-19T04:39:26;12.77;;;11.47;;
48205;SDS011;33995;48.202;16.260;2023-03-19T04:41:53;11.67;;;10.47;;
48205;SDS011;33995;48.202;16.260;2023-03-19T04:44:29;12.00;;;10.60;;
48205;SDS011;33995;48.202;16.260;2023-03-19T04:46:59;11.77;;;10.57;;
48205;SDS011;33995;48.202;16.260;2023-03-19T04:49:31;11.63;;;10.50;;
48205;SDS011;33995;48.202;16.260;2023-03-19T04:51:59;12.17;;;10.73;;
48205;SDS011;33995;48.202;16.260;2023-03-19T04:54:26;12.40;;;11.20;;
48205;SDS011;33995;48.202;16.260;2023-03-19T04:56:54;12.57;;;11.27;;
48205;SDS011;33995;48.202;16.260;2023-03-19T04:59:24;12.23;;;11.03;;
48205;SDS011;33995;48.202;16.260;2023-03-19T05:01:53;12.40;;;11.20;;
48205;SDS011;33995;48.202;16.260;2023-03-19T05:04:26;11.47;;;10.30;;
48205;SDS011;33995;48.202;16.260;2023-03-19T05:06:59;12.53;;;11.27;;
48205;SDS011;33995;48.202;16.260;2023-03-19T05:09:27;11.90;;;10.70;;
48205;SDS011;33995;48.202;16.260;2023-03-19T05:11:56;12.70;;;11.40;;
48205;SDS011;33995;48.202;16.260;2023-03-19T05:14:24;12.43;;;11.13;;
48205;SDS011;33995;48.202;16.260;2023-03-19T05:17:10;12.10;;;10.63;;
48205;SDS011;33995;48.202;16.260;2023-03-19T05:19:59;12.50;;;11.20;;
48205;SDS011;33995;48.202;16.260;2023-03-19T05:22:28;12.53;;;11.23;;
48205;SDS011;33995;48.202;16.260;2023-03-19T05:24:56;11.93;;;10.73;;
48205;SDS011;33995;48.202;16.260;2023-03-19T05:27:24;13.10;;;11.40;;
48205;SDS011;33995;48.202;16.260;2023-03-19T05:30:04;13.27;;;11.40;;
48205;SDS011;33995;48.202;16.260;2023-03-19T05:32:44;13.37;;;11.97;;
48205;SDS011;33995;48.202;16.260;2023-03-19T05:35:31;13.20;;;11.83;;
48205;SDS011;33995;48.202;16.260;2023-03-19T05:38:01;12.90;;;11.37;;
48205;SDS011;33995;48.202;16.260;2023-03-19T05:40:29;13.83;;;12.07;;
48205;SDS011;33995;48.202;16.260;2023-03-19T05:43:02;13.43;;;12.03;;
48205;SDS011;33995;48.202;16.260;2023-03-19T05:45:31;15.80;;;11.53;;
48205;SDS011;33995;48.202;16.260;2023-03-19T05:48:04;12.70;;;11.40;;
48205;SDS011;33995;48.202;16.260;2023-03-19T05:50:37;12.67;;;11.37;;
48205;SDS011;33995;48.202;16.260;2023-03-19T05:53:18;16.23;;;12.33;;
48205;SDS011;33995;48.202;16.260;2023-03-19T05:56:04;13.43;;;12.13;;
48205;SDS011;33995;48.202;16.260;2023-03-19T05:58:39;13.27;;;11.87;;
48205;SDS011;33995;48.202;16.260;2023-03-19T06:01:06;13.20;;;11.90;;
48205;SDS011;33995;48.202;16.260;2023-03-19T06:03:34;12.87;;;11.70;;
48205;SDS011;33995;48.202;16.260;2023-03-19T06:06:05;13.57;;;12.27;;
48205;SDS011;33995;48.202;16.260;2023-03-19T06:08:37;12.93;;;11.63;;
48205;SDS011;33995;48.202;16.260;2023-03-19T06:11:17;13.43;;;12.03;;
48205;SDS011;33995;48.202;16.260;2023-03-19T06:13:52;13.53;;;12.13;;
48205;SDS011;33995;48.202;16.260;2023-03-19T06:16:19;13.43;;;11.40;;
48205;SDS011;33995;48.202;16.260;2023-03-19T06:18:51;13.17;;;11.83;;
48205;SDS011;33995;48.202;16.260;2023-03-19T06:21:18;13.50;;;12.07;;
48205;SDS011;33995;48.202;16.260;2023-03-19T06:23:46;13.87;;;12.47;;
48205;SDS011;33995;48.202;16.260;2023-03-19T06:26:17;13.33;;;12.03;;
48205;SDS011;33995;48.202;16.260;2023-03-19T06:28:51;13.30;;;12.00;;
48205;SDS011;33995;48.202;16.260;2023-03-19T06:31:20;13.10;;;11.73;;
48205;SDS011;33995;48.202;16.260;2023-03-19T06:34:19;12.73;;;11.50;;
48205;SDS011;33995;48.202;16.260;2023-03-19T06:36:48;12.47;;;11.30;;
48205;SDS011;33995;48.202;16.260;2023-03-19T06:39:16;12.90;;;11.60;;
48205;SDS011;33995;48.202;16.260;2023-03-19T06:41:44;13.40;;;11.97;;
48205;SDS011;33995;48.202;16.260;2023-03-19T06:44:21;13.90;;;12.50;;
48205;SDS011;33995;48.202;16.260;2023-03-19T06:46:50;13.30;;;12.00;;
48205;SDS011;33995;48.202;16.260;2023-03-19T06:49:17;13.07;;;11.77;;
48205;SDS011;33995;48.202;16.260;2023-03-19T06:51:44;13.50;;;12.10;;
48205;SDS011;33995;48.202;16.260;2023-03-19T06:54:12;13.93;;;12.50;;
48205;SDS011;33995;48.202;16.260;2023-03-19T06:56:39;14.00;;;12.50;;
48205;SDS011;33995;48.202;16.260;2023-03-19T06:59:06;13.60;;;12.30;;
48205;SDS011;33995;48.202;16.260;2023-03-19T07:01:39;13.20;;;11.90;;
48205;SDS011;33995;48.202;16.260;2023-03-19T07:04:07;13.93;;;12.63;;
48205;SDS011;33995;48.202;16.260;2023-03-19T07:06:35;13.40;;;11.57;;
48205;SDS011;33995;48.202;16.260;2023-03-19T07:09:02;13.77;;;12.37;;
48205;SDS011;33995;48.202;16.260;2023-03-19T07:11:30;13.70;;;12.40;;
48205;SDS011;33995;48.202;16.260;2023-03-19T07:14:01;13.40;;;12.00;;
48205;SDS011;33995;48.202;16.260;2023-03-19T07:16:28;13.40;;;12.10;;
48205;SDS011;33995;48.202;16.260;2023-03-19T07:18:56;13.60;;;12.20;;
48205;SDS011;33995;48.202;16.260;2023-03-19T07:21:23;13.03;;;11.60;;
48205;SDS011;33995;48.202;16.260;2023-03-19T07:23:50;13.33;;;12.03;;
48205;SDS011;33995;48.202;16.260;2023-03-19T07:26:18;13.43;;;11.93;;
48205;SDS011;33995;48.202;16.260;2023-03-19T07:28:45;13.70;;;12.40;;
48205;SDS011;33995;48.202;16.260;2023-03-19T07:31:12;13.83;;;12.20;;
48205;SDS011;33995;48.202;16.260;2023-03-19T07:33:40;13.53;;;12.30;;
48205;SDS011;33995;48.202;16.260;2023-03-19T07:36:10;13.73;;;12.23;;
48205;SDS011;33995;48.202;16.260;2023-03-19T07:38:40;14.00;;;12.30;;
48205;SDS011;33995;48.202;16.260;2023-03-19T07:41:07;13.50;;;12.20;;
48205;SDS011;33995;48.202;16.260;2023-03-19T07:43:35;13.43;;;12.03;;
48205;SDS011;33995;48.202;16.260;2023-03-19T07:46:03;13.50;;;12.20;;
48205;SDS011;33995;48.202;16.260;2023-03-19T07:48:32;13.93;;;12.53;;
48205;SDS011;33995;48.202;16.260;2023-03-19T07:51:00;13.70;;;12.30;;
48205;SDS011;33995;48.202;16.260;2023-03-19T07:53:27;13.87;;;12.47;;
48205;SDS011;33995;48.202;16.260;2023-03-19T07:55:54;13.50;;;12.20;;
48205;SDS011;33995;48.202;16.260;2023-03-19T07:58:22;13.03;;;11.73;;
48205;SDS011;33995;48.202;16.260;2023-03-19T08:00:49;14.03;;;12.73;;
48205;SDS011;33995;48.202;16.260;2023-03-19T08:03:16;13.77;;;12.33;;
48205;SDS011;33995;48.202;16.260;2023-03-19T08:05:43;14.10;;;12.70;;
48205;SDS011;33995;48.202;16.260;2023-03-19T08:08:10;14.77;;;12.83;;
48205;SDS011;33995;48.202;16.260;2023-03-19T08:10:38;14.00;;;12.60;;
48205;SDS011;33995;48.202;16.260;2023-03-19T08:13:06;13.70;;;12.40;;
48205;SDS011;33995;48.202;16.260;2023-03-19T08:15:33;14.13;;;12.73;;
48205;SDS011;33995;48.202;16.260;2023-03-19T08:18:01;13.83;;;12.53;;
48205;SDS011;33995;48.202;16.260;2023-03-19T08:20:30;14.00;;;12.60;;
48205;SDS011;33995;48.202;16.260;2023-03-19T08:22:58;14.23;;;12.73;;
48205;SDS011;33995;48.202;16.260;2023-03-19T08:25:27;13.30;;;12.00;;
48205;SDS011;33995;48.202;16.260;2023-03-19T08:27:58;14.00;;;12.70;;
48205;SDS011;33995;48.202;16.260;2023-03-19T08:30:26;13.80;;;12.50;;
48205;SDS011;33995;48.202;16.260;2023-03-19T08:32:54;13.10;;;11.83;;
48205;SDS011;33995;48.202;16.260;2023-03-19T08:35:21;14.00;;;12.67;;
48205;SDS011;33995;48.202;16.260;2023-03-19T08:37:52;14.10;;;12.60;;
48205;SDS011;33995;48.202;16.260;2023-03-19T08:40:22;13.57;;;12.27;;
48205;SDS011;33995;48.202;16.260;2023-03-19T08:42:50;13.77;;;12.27;;
48205;SDS011;33995;48.202;16.260;2023-03-19T08:45:19;13.67;;;12.37;;
48205;SDS011;33995;48.202;16.260;2023-03-19T08:47:47;14.00;;;12.70;;
48205;SDS011;33995;48.202;16.260;2023-03-19T08:50:17;13.70;;;12.40;;
48205;SDS011;33995;48.202;16.260;2023-03-19T08:52:44;14.17;;;12.87;;
48205;SDS011;33995;48.202;16.260;2023-03-19T08:55:12;13.57;;;12.27;;
48205;SDS011;33995;48.202;16.260;2023-03-19T08:57:40;13.83;;;12.63;;
48205;SDS011;33995;48.202;16.260;2023-03-19T09:00:09;14.27;;;12.97;;
48205;SDS011;33995;48.202;16.260;2023-03-19T09:02:38;13.37;;;12.07;;
48205;SDS011;33995;48.202;16.260;2023-03-19T09:05:05;14.03;;;12.73;;
48205;SDS011;33995;48.202;16.260;2023-03-19T09:07:34;14.90;;;13.40;;
48205;SDS011;33995;48.202;16.260;2023-03-19T09:10:01;13.40;;;12.20;;
48205;SDS011;33995;48.202;16.260;2023-03-19T09:12:31;12.97;;;11.77;;
48205;SDS011;33995;48.202;16.260;2023-03-19T09:14:58;13.93;;;12.63;;
48205;SDS011;33995;48.202;16.260;2023-03-19T09:17:25;15.20;;;13.57;;
48205;SDS011;33995;48.202;16.260;2023-03-19T09:19:52;15.20;;;13.60;;
48205;SDS011;33995;48.202;16.260;2023-03-19T09:22:19;14.07;;;12.70;;
48205;SDS011;33995;48.202;16.260;2023-03-19T09:24:46;14.20;;;12.83;;
48205;SDS011;33995;48.202;16.260;2023-03-19T09:27:13;13.50;;;12.20;;
48205;SDS011;33995;48.202;16.260;2023-03-19T09:29:41;14.33;;;12.97;;
48205;SDS011;33995;48.202;16.260;2023-03-19T09:32:09;13.80;;;12.47;;
48205;SDS011;33995;48.202;16.260;2023-03-19T09:34:36;13.30;;;12.00;;
48205;SDS011;33995;48.202;16.260;2023-03-19T09:37:03;12.73;;;11.53;;
48205;SDS011;33995;48.202;16.260;2023-03-19T09:39:31;13.70;;;12.40;;
48205;SDS011;33995;48.202;16.260;2023-03-19T09:44:31;14.30;;;13.00;;
48205;SDS011;33995;48.202;16.260;2023-03-19T09:49:45;15.20;;;13.70;;
48205;SDS011;33995;48.202;16.260;2023-03-19T09:54:56;14.33;;;13.03;;
48205;SDS011;33995;48.202;16.260;2023-03-19T09:57:48;15.93;;;14.43;;
48205;SDS011;33995;48.202;16.260;2023-03-19T10:00:23;13.93;;;12.60;;
48205;SDS011;33995;48.202;16.260;2023-03-19T10:02:57;15.00;;;13.60;;
48205;SDS011;33995;48.202;16.260;2023-03-19T10:15:27;13.57;;;12.27;;
48205;SDS011;33995;48.202;16.260;2023-03-19T10:17:51;14.10;;;12.80;;
48205;SDS011;33995;48.202;16.260;2023-03-19T10:26:02;15.40;;;14.00;;
48205;SDS011;33995;48.202;16.260;2023-03-19T10:28:31;14.30;;;13.00;;
48205;SDS011;33995;48.202;16.260;2023-03-19T10:33:35;23.50;;;20.73;;
48205;SDS011;33995;48.202;16.260;2023-03-19T10:36:16;16.20;;;14.70;;
48205;SDS011;33995;48.202;16.260;2023-03-19T10:38:46;14.87;;;13.47;;
48205;SDS011;33995;48.202;16.260;2023-03-19T10:41:28;14.70;;;13.30;;
48205;SDS011;33995;48.202;16.260;2023-03-19T10:44:11;14.73;;;13.23;;
48205;SDS011;33995;48.202;16.260;2023-03-19T10:46:46;14.37;;;13.00;;
48205;SDS011;33995;48.202;16.260;2023-03-19T10:49:13;14.27;;;12.87;;
48205;SDS011;33995;48.202;16.260;2023-03-19T10:51:42;15.37;;;13.87;;
48205;SDS011;33995;48.202;16.260;2023-03-19T10:54:18;15.90;;;14.40;;
48205;SDS011;33995;48.202;16.260;2023-03-19T10:56:50;14.67;;;13.27;;
48205;SDS011;33995;48.202;16.260;2023-03-19T11:01:57;14.50;;;13.13;;
48205;SDS011;33995;48.202;16.260;2023-03-19T11:04:27;15.50;;;14.10;;
48205;SDS011;33995;48.202;16.260;2023-03-19T11:06:55;15.77;;;14.33;;
48205;SDS011;33995;48.202;16.260;2023-03-19T11:09:33;14.77;;;13.27;;
48205;SDS011;33995;48.202;16.260;2023-03-19T11:14:46;13.43;;;12.13;;
48205;SDS011;33995;48.202;16.260;2023-03-19T11:19:52;15.23;;;13.83;;
48205;SDS011;33995;48.202;16.260;2023-03-19T11:22:31;13.60;;;12.40;;
48205;SDS011;33995;48.202;16.260;2023-03-19T11:25:13;13.07;;;11.80;;
48205;SDS011;33995;48.202;16.260;2023-03-19T11:27:40;14.03;;;12.73;;
48205;SDS011;33995;48.202;16.260;2023-03-19T11:30:16;14.00;;;12.80;;
48205;SDS011;33995;48.202;16.260;2023-03-19T11:35:33;13.53;;;12.20;;
48205;SDS011;33995;48.202;16.260;2023-03-19T11:38:12;13.93;;;12.73;;
48205;SDS011;33995;48.202;16.260;2023-03-19T11:46:21;14.10;;;12.90;;
48205;SDS011;33995;48.202;16.260;2023-03-19T11:52:03;14.13;;;12.73;;
48205;SDS011;33995;48.202;16.260;2023-03-19T11:54:48;14.90;;;13.50;;
48205;SDS011;33995;48.202;16.260;2023-03-19T11:57:37;14.60;;;13.17;;
48205;SDS011;33995;48.202;16.260;2023-03-19T12:00:23;13.30;;;12.10;;
48205;SDS011;33995;48.202;16.260;2023-03-19T12:05:46;13.83;;;12.53;;
48205;SDS011;33995;48.202;16.260;2023-03-19T12:08:57;14.90;;;13.50;;
48205;SDS011;33995;48.202;16.260;2023-03-19T12:14:31;13.87;;;12.63;;
48205;SDS011;33995;48.202;16.260;2023-03-19T12:17:22;14.30;;;12.90;;
48205;SDS011;33995;48.202;16.260;2023-03-19T12:23:11;15.17;;;13.77;;
48205;SDS011;33995;48.202;16.260;2023-03-19T12:26:05;13.47;;;12.27;;
48205;SDS011;33995;48.202;16.260;2023-03-19T12:31:37;13.20;;;12.00;;
48205;SDS011;33995;48.202;16.260;2023-03-19T12:36:52;13.87;;;12.57;;
48205;SDS011;33995;48.202;16.260;2023-03-19T12:39:41;13.67;;;12.30;;
48205;SDS011;33995;48.202;16.260;2023-03-19T12:42:18;13.90;;;12.60;;
48205;SDS011;33995;48.202;16.260;2023-03-19T12:44:50;13.83;;;12.43;;
48205;SDS011;33995;48.202;16.260;2023-03-19T12:47:24;12.83;;;11.73;;
48205;SDS011;33995;48.202;16.260;2023-03-19T12:50:02;11.97;;;10.80;;
48205;SDS011;33995;48.202;16.260;2023-03-19T12:52:54;13.73;;;12.43;;
48205;SDS011;33995;48.202;16.260;2023-03-19T12:55:38;14.37;;;12.87;;
48205;SDS011;33995;48.202;16.260;2023-03-19T13:01:34;13.00;;;11.90;;
48205;SDS011;33995;48.202;16.260;2023-03-19T13:04:19;14.13;;;12.70;;
48205;SDS011;33995;48.202;16.260;2023-03-19T13:07:01;13.03;;;11.93;;
48205;SDS011;33995;48.202;16.260;2023-03-19T13:12:11;13.00;;;11.70;;
48205;SDS011;33995;48.202;16.260;2023-03-19T13:23:24;13.03;;;11.63;;
48205;SDS011;33995;48.202;16.260;2023-03-19T13:25:56;13.03;;;11.73;;
48205;SDS011;33995;48.202;16.260;2023-03-19T13:28:28;12.07;;;10.97;;
48205;SDS011;33995;48.202;16.260;2023-03-19T13:31:34;12.40;;;11.20;;
48205;SDS011;33995;48.202;16.260;2023-03-19T13:34:05;12.67;;;11.47;;
48205;SDS011;33995;48.202;16.260;2023-03-19T13:36:54;12.33;;;11.20;;
48205;SDS011;33995;48.202;16.260;2023-03-19T13:39:30;12.60;;;11.33;;
48205;SDS011;33995;48.202;16.260;2023-03-19T14:01:04;12.17;;;11.07;;
48205;SDS011;33995;48.202;16.260;2023-03-19T14:03:34;12.17;;;10.93;;
48205;SDS011;33995;48.202;16.260;2023-03-19T14:06:03;12.57;;;11.37;;
48205;SDS011;33995;48.202;16.260;2023-03-19T14:08:32;12.47;;;11.37;;
48205;SDS011;33995;48.202;16.260;2023-03-19T14:11:20;12.13;;;10.97;;
48205;SDS011;33995;48.202;16.260;2023-03-19T14:13:54;12.27;;;11.07;;
48205;SDS011;33995;48.202;16.260;2023-03-19T14:16:41;11.83;;;10.63;;
48205;SDS011;33995;48.202;16.260;2023-03-19T14:19:15;12.03;;;10.83;;
48205;SDS011;33995;48.202;16.260;2023-03-19T14:22:07;12.57;;;11.00;;
48205;SDS011;33995;48.202;16.260;2023-03-19T14:24:37;12.43;;;11.07;;
48205;SDS011;33995;48.202;16.260;2023-03-19T14:27:28;11.63;;;10.53;;
48205;SDS011;33995;48.202;16.260;2023-03-19T14:30:01;11.87;;;10.77;;
48205;SDS011;33995;48.202;16.260;2023-03-19T14:32:40;11.17;;;10.17;;
48205;SDS011;33995;48.202;16.260;2023-03-19T14:35:11;11.93;;;10.73;;
48205;SDS011;33995;48.202;16.260;2023-03-19T14:37:47;11.23;;;10.13;;
48205;SDS011;33995;48.202;16.260;2023-03-19T14:40:17;11.47;;;10.27;;
48205;SDS011;33995;48.202;16.260;2023-03-19T14:43:22;12.23;;;10.80;;
48205;SDS011;33995;48.202;16.260;2023-03-19T14:46:28;12.03;;;10.53;;
48205;SDS011;33995;48.202;16.260;2023-03-19T14:55:18;11.27;;;10.17;;
48205;SDS011;33995;48.202;16.260;2023-03-19T14:57:45;12.00;;;10.80;;
48205;SDS011;33995;48.202;16.260;2023-03-19T15:00:14;11.73;;;10.63;;
48205;SDS011;33995;48.202;16.260;2023-03-19T15:02:45;12.70;;;11.40;;
48205;SDS011;33995;48.202;16.260;2023-03-19T15:05:31;11.73;;;10.63;;
48205;SDS011;33995;48.202;16.260;2023-03-19T15:08:03;11.70;;;10.50;;
48205;SDS011;33995;48.202;16.260;2023-03-19T15:10:44;11.03;;;10.03;;
48205;SDS011;33995;48.202;16.260;2023-03-19T15:19:28;11.10;;;10.10;;
48205;SDS011;33995;48.202;16.260;2023-03-19T15:22:13;11.73;;;10.63;;
48205;SDS011;33995;48.202;16.260;2023-03-19T15:24:47;12.13;;;10.90;;
48205;SDS011;33995;48.202;16.260;2023-03-19T15:29:49;11.57;;;10.47;;
48205;SDS011;33995;48.202;16.260;2023-03-19T15:32:37;11.00;;;9.90;;
48205;SDS011;33995;48.202;16.260;2023-03-19T15:35:29;11.87;;;10.77;;
48205;SDS011;33995;48.202;16.260;2023-03-19T15:38:01;11.47;;;10.30;;
48205;SDS011;33995;48.202;16.260;2023-03-19T15:40:36;11.20;;;10.10;;
48205;SDS011;33995;48.202;16.260;2023-03-19T15:43:06;11.37;;;10.27;;
48205;SDS011;33995;48.202;16.260;2023-03-19T15:45:40;12.63;;;11.33;;
48205;SDS011;33995;48.202;16.260;2023-03-19T15:48:16;11.53;;;10.33;;
48205;SDS011;33995;48.202;16.260;2023-03-19T15:50:56;11.57;;;10.37;;
48205;SDS011;33995;48.202;16.260;2023-03-19T15:53:26;12.03;;;10.83;;
48205;SDS011;33995;48.202;16.260;2023-03-19T15:55:58;10.80;;;9.80;;
48205;SDS011;33995;48.202;16.260;2023-03-19T15:58:40;11.37;;;10.10;;
48205;SDS011;33995;48.202;16.260;2023-03-19T16:01:13;10.77;;;9.70;;
48205;SDS011;33995;48.202;16.260;2023-03-19T16:03:45;11.27;;;10.13;;
48205;SDS011;33995;48.202;16.260;2023-03-19T16:06:35;11.13;;;9.97;;
48205;SDS011;33995;48.202;16.260;2023-03-19T16:11:54;11.00;;;9.93;;
48205;SDS011;33995;48.202;16.260;2023-03-19T16:14:24;11.10;;;10.00;;
48205;SDS011;33995;48.202;16.260;2023-03-19T16:17:13;13.90;;;11.03;;
48205;SDS011;33995;48.202;16.260;2023-03-19T16:19:52;10.80;;;9.70;;
48205;SDS011;33995;48.202;16.260;2023-03-19T16:22:29;10.80;;;9.80;;
48205;SDS011;33995;48.202;16.260;2023-03-19T16:25:01;10.37;;;9.37;;
48205;SDS011;33995;48.202;16.260;2023-03-19T16:27:35;10.73;;;9.27;;
48205;SDS011;33995;48.202;16.260;2023-03-19T16:30:12;11.03;;;9.80;;
48205;SDS011;33995;48.202;16.260;2023-03-19T16:32:45;10.53;;;9.53;;
48205;SDS011;33995;48.202;16.260;2023-03-19T16:35:24;9.93;;;8.93;;
48205;SDS011;33995;48.202;16.260;2023-03-19T16:41:35;11.07;;;9.50;;